メインページ
METAR-TAF:

METAR-TAF

空港 :

アフヴァーズ空港

アフヴァーズ, イラン

緯度: 31-20N, 経度: 048-40E, 海抜: 20m

現時点の気象観測

当レポートは43分前の17:30(UTC)に作成
北西の風 4kt
気温 15°C
湿度 94%
気圧 1016 hPa
視程: 4000m
高度3000ftの雲はほとんどない, 積乱雲.
高度3500ftの雲は散在している
高度7000ftの曇り

METAR: OIAW 171730Z 32004KT 4000 RA FEW030CB SCT035 OVC070 15/14 Q1016

時間: 21:43 (18:13 UTC)

予報

当レポートは6時間43分前の11:30(UTC)に作成
予報は17日の 12時(UTC)から 18日の 18時(UTC)まで有効
北東の風 8kt
視程: 5000m
高度3000ftの雲はほとんどない, 積乱雲.
高度3500ftの雲は散在している
高度9000ftの千切れ雲あり
雨, 靄
17日の 12時(UTC)から 17日の 18時(UTC)まで一時的に
北東の風 16kt、最大30ktの突風を伴う
視程: 2000m
高度3000ftの雲は散在している, 積乱雲.
高度3500ftの雲は散在している
高度8000ftの曇り
17日の 18時(UTC)から 18日の 06時(UTC)まで一時的に
視程: 3000m
高度3000ftの雲は散在している, 積乱雲.
高度3500ftの雲は散在している
高度8000ftの曇り
激しい雷雨, 雨
18日の 08時(UTC)から 18日の 10時(UTC)まで徐々に
視程: 7000m
高度3000ftの雲はほとんどない
高度10000ftの雲は散在している

TAF: OIAW 171130Z 1712/1818 05008KT 5000 RA BR FEW030CB SCT035 BKN090 TEMPO 1712/1718 05016G30KT 2000 RA SCT030CB SCT035 OVC080 TEMPO 1718/1806 3000 TSRA SCT030CB SCT035 OVC080 BECMG 1808/1810 7000 FEW030 SCT100

4,000以上の空港の気象観測と天気予報(METAR報とTAF報)

利用可能な観測所は地図上に黄色い丸と赤い丸で示す。

丸の上にカーソルを重ねると観測所名を参照できる。

次にクリックすると気象観測と天気予報を参照できる。

マップの切り替え:黒色「×」印の緑ボタンをクリックして拡大、「-」印の緑ボタンをクリックして縮小、緑色の三角印をクリックして隣りの地図に切り替え


METAR-TAF: